LFMO

Orange-Caritat (BA 115) Air Base Airport

Orange/Caritat, France
METAR LFMO 201600Z AUTO VRB02KT CAVOK 33/12 Q1015 NOSIG
Observed Flight Rules
Sep-20 @ 16:00 UTC (34 minutes ago) Visual Flight Rules
Wind Visibility Clouds
Variable at 2 knots 10,000+ meters
  • Clear skies
Temperatures Readings
Current 33°C / 91°F
Dewpoint 12°C / 54°F
Humidity 28%
Altimeter 29.97" Hg
Pressure 1015 hPa
Elevation 55
METAR LFMO 201600Z AUTO VRB02KT CAVOK 33/12 Q1015 NOSIG
Observed Flight Rules
Sep-20 @ 16:00 UTC
(34 minutes ago)
VFR
Wind Visibility
Variable at 2 knots 10,000+ meters
Clouds
  • Clear skies
Temperature Dewpoint
33°C / 91°F 12°C / 54°F
Humidity Altimeter Pressure
28% 29.97" Hg 1015 hPa